createdAt,value
2022-11-30T00:00:02.587Z,41.22
2022-11-30T00:00:59.345Z,44.12
2022-11-30T00:01:46.001Z,42.03
2022-11-30T00:02:32.938Z,39.10
2022-11-30T00:03:19.886Z,37.22
2022-11-30T00:04:08.047Z,38.43
2022-11-30T00:04:54.712Z,38.46
2022-11-30T00:05:43.818Z,36.66
2022-11-30T00:06:30.607Z,37.00
2022-11-30T00:07:17.606Z,38.39
2022-11-30T00:08:04.292Z,41.39
2022-11-30T00:08:56.414Z,36.78
2022-11-30T00:09:43.146Z,41.22
2022-11-30T00:10:29.708Z,40.39
2022-11-30T00:11:21.046Z,39.62
2022-11-30T00:12:08.047Z,39.01
2022-11-30T00:12:54.809Z,40.06
2022-11-30T00:13:42.307Z,40.70
2022-11-30T00:14:28.823Z,38.39
2022-11-30T00:15:17.376Z,40.09
2022-11-30T00:16:04.567Z,41.20
2022-11-30T00:16:51.216Z,39.72
2022-11-30T00:17:37.881Z,40.38
2022-11-30T00:18:24.890Z,38.94
2022-11-30T00:19:11.571Z,43.31
2022-11-30T00:19:58.474Z,43.37
2022-11-30T00:20:45.675Z,42.48
2022-11-30T00:21:32.305Z,44.52
2022-11-30T00:22:18.758Z,47.17
2022-11-30T00:23:05.398Z,47.60
2022-11-30T00:23:52.362Z,45.92
2022-11-30T00:24:39.241Z,47.35
2022-11-30T00:25:28.836Z,48.61
2022-11-30T00:26:17.971Z,52.09
2022-11-30T00:27:04.537Z,50.41
2022-11-30T00:27:52.794Z,50.15
2022-11-30T00:28:40.653Z,48.50
2022-11-30T00:29:27.177Z,51.65
2022-11-30T00:30:14.709Z,51.24
2022-11-30T00:31:04.876Z,51.12
2022-11-30T00:31:51.574Z,47.80
2022-11-30T00:32:38.922Z,48.84
2022-11-30T00:33:25.414Z,52.92
2022-11-30T00:34:12.215Z,51.35
2022-11-30T00:34:58.785Z,50.41
2022-11-30T00:35:56.121Z,49.34
2022-11-30T00:36:42.780Z,51.16
2022-11-30T00:37:29.353Z,51.27
2022-11-30T00:38:16.191Z,48.99
2022-11-30T00:39:02.697Z,51.10
2022-11-30T00:39:50.772Z,50.59
2022-11-30T00:40:37.358Z,50.26
2022-11-30T00:41:24.011Z,48.51
2022-11-30T00:42:10.996Z,53.75
2022-11-30T00:42:57.825Z,54.65
2022-11-30T00:43:45.195Z,53.42
2022-11-30T00:44:31.886Z,51.69
2022-11-30T00:45:18.447Z,50.37
2022-11-30T00:46:06.086Z,52.59
2022-11-30T00:46:52.583Z,52.87
2022-11-30T00:47:39.234Z,55.65
2022-11-30T00:48:26.728Z,53.14
2022-11-30T00:49:13.340Z,52.71
2022-11-30T00:50:00.203Z,50.60
2022-11-30T00:50:49.351Z,51.02
2022-11-30T00:51:36.006Z,52.41
2022-11-30T00:52:22.803Z,52.82
2022-11-30T00:53:09.498Z,49.94
2022-11-30T00:53:56.245Z,52.66
2022-11-30T00:54:42.815Z,52.16
2022-11-30T00:55:31.627Z,48.62
2022-11-30T00:56:19.487Z,48.23
2022-11-30T00:57:06.235Z,51.79
2022-11-30T00:57:53.532Z,51.91
2022-11-30T00:58:41.167Z,51.55
2022-11-30T00:59:28.067Z,50.70
2022-11-30T01:00:15.405Z,54.06
2022-11-30T01:01:02.592Z,55.32
2022-11-30T01:01:49.325Z,51.15
2022-11-30T01:02:35.980Z,53.84
2022-11-30T01:03:22.549Z,53.21
2022-11-30T01:04:09.468Z,55.04
2022-11-30T01:04:56.105Z,53.35
2022-11-30T01:05:43.486Z,50.68
2022-11-30T01:06:30.310Z,50.10
2022-11-30T01:07:16.974Z,53.56
2022-11-30T01:08:06.583Z,53.90
2022-11-30T01:08:53.123Z,51.71
2022-11-30T01:09:39.581Z,52.87
2022-11-30T01:10:27.513Z,54.01
2022-11-30T01:11:21.599Z,51.07
2022-11-30T01:12:08.322Z,52.51
2022-11-30T01:12:55.329Z,55.57
2022-11-30T01:13:42.209Z,57.68
2022-11-30T01:14:28.863Z,54.15
2022-11-30T01:15:15.533Z,54.37
2022-11-30T01:16:02.347Z,55.87
2022-11-30T01:16:54.739Z,57.35
2022-11-30T01:17:42.833Z,57.83
2022-11-30T01:18:29.518Z,53.63
2022-11-30T01:19:16.247Z,52.29
2022-11-30T01:20:05.205Z,52.06
2022-11-30T01:20:51.794Z,55.00
2022-11-30T01:21:38.863Z,50.46
2022-11-30T01:22:25.439Z,52.76
2022-11-30T01:23:12.053Z,58.05
2022-11-30T01:23:59.090Z,59.13
2022-11-30T01:24:48.952Z,53.19
2022-11-30T01:25:35.803Z,55.84
2022-11-30T01:26:23.388Z,54.60
2022-11-30T01:27:09.866Z,53.07
2022-11-30T01:27:56.516Z,54.77
2022-11-30T01:28:44.281Z,53.69
2022-11-30T01:29:30.887Z,57.31
2022-11-30T01:30:18.958Z,57.79
2022-11-30T01:31:08.342Z,57.99
2022-11-30T01:31:54.969Z,57.87
2022-11-30T01:32:41.637Z,60.08
2022-11-30T01:33:28.271Z,60.63
2022-11-30T01:34:14.935Z,62.96
2022-11-30T01:35:01.785Z,61.73
2022-11-30T01:35:48.282Z,61.38
2022-11-30T01:36:36.309Z,60.91
2022-11-30T01:37:23.303Z,63.50
2022-11-30T01:38:10.251Z,56.91
2022-11-30T01:38:58.245Z,61.65
2022-11-30T01:39:44.983Z,59.28
2022-11-30T01:40:31.510Z,56.52
2022-11-30T01:41:24.254Z,58.82
2022-11-30T01:42:17.789Z,60.07
2022-11-30T01:43:11.633Z,57.83
2022-11-30T01:44:19.975Z,58.55
2022-11-30T01:45:12.598Z,58.62
2022-11-30T01:45:59.352Z,55.98
2022-11-30T01:46:57.459Z,56.39
2022-11-30T01:47:53.428Z,62.56
2022-11-30T01:48:40.204Z,56.63
2022-11-30T01:49:31.550Z,56.69
2022-11-30T01:50:32.009Z,58.02
2022-11-30T01:51:19.351Z,57.02
2022-11-30T01:52:08.170Z,54.30
2022-11-30T01:52:57.073Z,53.00
2022-11-30T01:53:43.675Z,51.74
2022-11-30T01:54:38.274Z,50.40
2022-11-30T01:55:49.242Z,54.39
2022-11-30T01:56:41.436Z,55.22
2022-11-30T01:57:35.756Z,55.31
2022-11-30T01:58:29.970Z,49.60
2022-11-30T01:59:22.057Z,56.21
2022-11-30T02:00:13.861Z,53.70
2022-11-30T02:01:01.969Z,52.13
2022-11-30T02:01:48.774Z,50.54
2022-11-30T02:02:57.460Z,53.13
2022-11-30T02:03:55.728Z,56.08
2022-11-30T02:04:43.339Z,62.68
2022-11-30T02:05:31.478Z,62.81
2022-11-30T02:06:18.973Z,65.95
2022-11-30T02:07:08.515Z,60.27
2022-11-30T02:07:55.967Z,58.18
2022-11-30T02:08:43.309Z,58.46
2022-11-30T02:09:39.526Z,59.73
2022-11-30T02:10:30.401Z,59.16
2022-11-30T02:11:17.541Z,62.03
2022-11-30T02:12:08.931Z,61.75
2022-11-30T02:13:08.334Z,56.78
2022-11-30T02:14:13.386Z,58.82
2022-11-30T02:15:09.329Z,59.22
2022-11-30T02:16:21.816Z,61.97
2022-11-30T02:17:19.857Z,64.45
2022-11-30T02:18:15.122Z,65.56
2022-11-30T02:19:07.764Z,61.68
2022-11-30T02:20:24.723Z,57.20
2022-11-30T02:21:22.215Z,55.58
2022-11-30T02:22:45.969Z,48.80
2022-11-30T02:23:42.981Z,55.58
2022-11-30T02:24:55.341Z,60.12
2022-11-30T02:26:08.691Z,58.48
2022-11-30T02:27:28.893Z,53.10
2022-11-30T02:28:34.030Z,52.72
2022-11-30T02:29:24.567Z,51.85
2022-11-30T02:30:16.445Z,50.24
2022-11-30T02:31:10.519Z,55.03
2022-11-30T02:32:25.987Z,55.93
2022-11-30T02:33:18.841Z,47.47
2022-11-30T02:34:10.937Z,47.83
2022-11-30T02:35:01.853Z,49.61
2022-11-30T02:35:55.320Z,50.96
2022-11-30T02:36:47.386Z,54.47
2022-11-30T02:37:37.405Z,55.88
2022-11-30T02:38:27.348Z,55.79
2022-11-30T02:39:14.294Z,52.79
2022-11-30T02:40:01.032Z,52.22
2022-11-30T02:40:48.130Z,49.98
2022-11-30T02:41:39.689Z,48.23
2022-11-30T02:42:26.483Z,52.16
2022-11-30T02:43:15.178Z,51.87
2022-11-30T02:44:02.225Z,50.79
2022-11-30T02:44:52.576Z,51.91
2022-11-30T02:45:50.363Z,50.63
2022-11-30T02:47:01.768Z,48.89
2022-11-30T02:48:07.865Z,49.78
2022-11-30T02:49:18.936Z,48.84
2022-11-30T02:50:25.568Z,52.22
2022-11-30T02:51:17.940Z,48.89
2022-11-30T02:52:08.212Z,47.05
2022-11-30T02:52:56.112Z,47.61
2022-11-30T02:53:46.862Z,46.56
2022-11-30T02:54:34.711Z,47.50
2022-11-30T02:55:21.483Z,45.72
2022-11-30T02:56:11.515Z,44.92
2022-11-30T02:56:58.433Z,48.49
2022-11-30T02:57:48.097Z,45.97
2022-11-30T02:58:35.071Z,44.28
2022-11-30T02:59:22.333Z,46.80
2022-11-30T03:00:13.940Z,47.60
2022-11-30T03:01:00.605Z,42.23
2022-11-30T03:01:47.319Z,42.47
2022-11-30T03:02:34.182Z,45.25
2022-11-30T03:03:21.069Z,44.54
2022-11-30T03:04:07.603Z,46.22
2022-11-30T03:04:54.156Z,46.98
2022-11-30T03:05:40.722Z,43.26
2022-11-30T03:06:27.310Z,41.86
2022-11-30T03:07:14.132Z,44.13
2022-11-30T03:08:00.956Z,46.27
2022-11-30T03:08:47.818Z,49.11
2022-11-30T03:09:34.281Z,48.19
2022-11-30T03:10:21.248Z,49.92
2022-11-30T03:11:07.985Z,49.61
2022-11-30T03:11:54.747Z,47.93
2022-11-30T03:12:41.300Z,46.90
2022-11-30T03:13:27.981Z,46.72
2022-11-30T03:14:14.629Z,46.73
2022-11-30T03:15:03.202Z,46.69
2022-11-30T03:15:50.201Z,45.23
2022-11-30T03:16:38.046Z,48.50
2022-11-30T03:17:24.809Z,50.68
2022-11-30T03:18:11.871Z,50.14
2022-11-30T03:18:58.970Z,48.76
2022-11-30T03:19:45.420Z,46.08
2022-11-30T03:20:32.617Z,45.83
2022-11-30T03:21:19.374Z,50.52
2022-11-30T03:22:06.467Z,46.04
2022-11-30T03:22:52.886Z,46.03
2022-11-30T03:23:40.814Z,48.97
2022-11-30T03:24:27.555Z,49.46
2022-11-30T03:25:14.152Z,49.05
2022-11-30T03:26:00.700Z,46.97
2022-11-30T03:26:47.188Z,45.90
2022-11-30T03:27:33.845Z,46.10
2022-11-30T03:28:20.342Z,46.68
2022-11-30T03:29:07.151Z,47.03
2022-11-30T03:29:53.758Z,46.33
2022-11-30T03:30:40.300Z,48.20
2022-11-30T03:31:26.962Z,45.79
2022-11-30T03:32:13.686Z,46.13
2022-11-30T03:33:00.349Z,44.58
2022-11-30T03:33:47.205Z,44.96
2022-11-30T03:34:33.796Z,44.24
2022-11-30T03:35:20.366Z,46.44
2022-11-30T03:36:09.674Z,48.24
2022-11-30T03:36:56.338Z,49.53
2022-11-30T03:37:43.041Z,52.10
2022-11-30T03:38:30.444Z,49.53
2022-11-30T03:39:16.995Z,47.17
2022-11-30T03:40:06.839Z,46.56
2022-11-30T03:41:04.332Z,48.97
2022-11-30T03:41:51.764Z,47.26
2022-11-30T03:42:38.512Z,44.85
2022-11-30T03:43:25.220Z,47.44
2022-11-30T03:44:11.951Z,47.99
2022-11-30T03:44:58.744Z,47.25
2022-11-30T03:45:46.539Z,44.71
2022-11-30T03:46:36.079Z,43.35
2022-11-30T03:47:23.286Z,44.54
2022-11-30T03:48:09.783Z,48.40
2022-11-30T03:48:56.429Z,52.81
2022-11-30T03:49:42.910Z,53.73
2022-11-30T03:50:30.101Z,49.49
2022-11-30T03:51:16.635Z,50.84
2022-11-30T03:52:03.217Z,52.20
2022-11-30T03:52:49.998Z,53.23
2022-11-30T03:53:37.209Z,50.09
2022-11-30T03:54:23.880Z,53.08
2022-11-30T03:55:11.075Z,55.71
2022-11-30T03:56:00.803Z,56.56
2022-11-30T03:56:47.547Z,53.71
2022-11-30T03:57:34.796Z,52.72
2022-11-30T03:58:23.171Z,53.56
2022-11-30T03:59:09.860Z,55.17
2022-11-30T03:59:56.363Z,50.24
2022-11-30T04:00:42.876Z,49.37
2022-11-30T04:01:29.404Z,51.92
2022-11-30T04:02:16.054Z,49.65
2022-11-30T04:03:02.896Z,53.24
2022-11-30T04:03:51.612Z,55.94
2022-11-30T04:04:38.045Z,57.44
2022-11-30T04:05:24.578Z,55.67
2022-11-30T04:06:13.022Z,53.59
2022-11-30T04:06:59.786Z,52.12
2022-11-30T04:07:46.365Z,54.28
2022-11-30T04:08:33.786Z,54.14
2022-11-30T04:09:20.349Z,55.44
2022-11-30T04:10:08.759Z,57.94
2022-11-30T04:10:57.513Z,57.98
2022-11-30T04:11:46.738Z,61.88
2022-11-30T04:12:33.440Z,61.68
2022-11-30T04:13:21.212Z,58.15
2022-11-30T04:14:07.831Z,61.10
2022-11-30T04:14:54.333Z,61.00
2022-11-30T04:15:40.975Z,56.26
2022-11-30T04:16:27.849Z,58.94
2022-11-30T04:17:14.551Z,62.16
2022-11-30T04:18:01.902Z,62.36
2022-11-30T04:18:48.589Z,65.75
2022-11-30T04:19:36.183Z,62.54
2022-11-30T04:20:22.719Z,61.58
2022-11-30T04:21:10.378Z,56.50
2022-11-30T04:21:56.853Z,61.37
2022-11-30T04:22:43.481Z,60.10
2022-11-30T04:23:33.246Z,60.54
2022-11-30T04:24:19.997Z,63.97
2022-11-30T04:25:07.146Z,62.56
2022-11-30T04:25:53.619Z,63.04
2022-11-30T04:26:40.318Z,60.28
2022-11-30T04:27:28.774Z,61.83
2022-11-30T04:28:16.771Z,59.08
2022-11-30T04:29:04.782Z,62.34
2022-11-30T04:29:51.532Z,70.89
2022-11-30T04:30:38.067Z,70.24
2022-11-30T04:31:24.692Z,64.82
2022-11-30T04:32:11.412Z,59.23
2022-11-30T04:32:58.456Z,55.40
2022-11-30T04:33:45.040Z,60.32
2022-11-30T04:34:33.850Z,65.12
2022-11-30T04:35:21.125Z,62.10
2022-11-30T04:36:17.738Z,62.06
2022-11-30T04:37:04.247Z,60.89
2022-11-30T04:37:50.705Z,60.08
2022-11-30T04:38:37.675Z,64.35
2022-11-30T04:39:24.166Z,60.94
2022-11-30T04:40:11.308Z,61.73
2022-11-30T04:40:58.009Z,60.70
2022-11-30T04:41:45.401Z,62.59
2022-11-30T04:42:31.888Z,61.12
2022-11-30T04:43:18.543Z,56.68
2022-11-30T04:44:05.005Z,58.14
2022-11-30T04:44:51.671Z,61.45
2022-11-30T04:45:42.782Z,62.94
2022-11-30T04:46:29.609Z,62.71
2022-11-30T04:47:16.428Z,65.29
2022-11-30T04:48:03.971Z,60.89
2022-11-30T04:48:50.599Z,65.51
2022-11-30T04:49:37.364Z,67.47
2022-11-30T04:50:23.979Z,70.96
2022-11-30T04:51:10.623Z,65.53
2022-11-30T04:51:57.292Z,64.75
2022-11-30T04:52:44.040Z,65.80
2022-11-30T04:53:30.706Z,66.58
2022-11-30T04:54:17.352Z,62.89
2022-11-30T04:55:04.379Z,64.01
2022-11-30T04:55:50.796Z,74.68
2022-11-30T04:56:37.287Z,74.59
2022-11-30T04:57:27.721Z,66.90
2022-11-30T04:58:16.716Z,64.25
2022-11-30T04:59:03.435Z,70.31
2022-11-30T04:59:50.059Z,71.77
2022-11-30T05:00:37.464Z,68.52
2022-11-30T05:01:24.216Z,65.03
2022-11-30T05:02:10.888Z,66.83
2022-11-30T05:02:57.527Z,69.85
2022-11-30T05:03:44.097Z,66.26
2022-11-30T05:04:32.858Z,71.07
2022-11-30T05:05:19.473Z,71.77
2022-11-30T05:06:06.327Z,68.13
2022-11-30T05:07:40.518Z,65.73
2022-11-30T05:08:27.426Z,60.73
2022-11-30T05:09:13.922Z,60.48
2022-11-30T05:10:00.611Z,64.29
2022-11-30T05:10:54.946Z,58.70
2022-11-30T05:11:43.626Z,59.53
2022-11-30T05:12:30.259Z,58.58
2022-11-30T05:13:16.856Z,56.90
2022-11-30T05:14:03.530Z,55.78
2022-11-30T05:14:50.152Z,51.74
2022-11-30T05:15:36.676Z,48.61
2022-11-30T05:16:23.254Z,49.08
2022-11-30T05:17:09.835Z,47.76
2022-11-30T05:17:59.302Z,47.62
2022-11-30T05:18:45.976Z,48.25
2022-11-30T05:19:33.616Z,49.54
2022-11-30T05:20:23.038Z,50.46
2022-11-30T05:21:11.084Z,46.67
2022-11-30T05:21:59.227Z,45.88
2022-11-30T05:22:45.822Z,46.67
2022-11-30T05:23:32.590Z,49.80
2022-11-30T05:24:19.090Z,47.70
2022-11-30T05:25:05.973Z,46.66
2022-11-30T05:25:53.943Z,47.01
2022-11-30T05:26:40.484Z,48.51
2022-11-30T05:27:29.775Z,45.89
2022-11-30T05:28:16.710Z,44.23
2022-11-30T05:29:06.056Z,48.05
2022-11-30T05:29:53.064Z,49.92
2022-11-30T05:30:40.908Z,52.46
2022-11-30T05:31:27.665Z,50.02
2022-11-30T05:32:14.311Z,46.56
2022-11-30T05:33:01.312Z,46.15
2022-11-30T05:33:52.749Z,48.87
2022-11-30T05:34:50.038Z,47.66
2022-11-30T05:35:38.572Z,47.19
2022-11-30T05:36:25.632Z,47.22
2022-11-30T05:37:12.367Z,48.47
2022-11-30T05:37:59.081Z,51.61
2022-11-30T05:38:46.231Z,49.84
2022-11-30T05:39:32.920Z,51.77
2022-11-30T05:40:19.790Z,52.19
2022-11-30T05:41:06.381Z,49.17
2022-11-30T05:41:53.031Z,47.44
2022-11-30T05:42:39.888Z,49.81
2022-11-30T05:43:26.642Z,51.07
2022-11-30T05:44:13.287Z,50.04
2022-11-30T05:45:00.980Z,47.16
2022-11-30T05:45:47.784Z,46.12
2022-11-30T05:46:38.342Z,48.31
2022-11-30T05:47:27.353Z,51.51
2022-11-30T05:48:13.957Z,52.38
2022-11-30T05:49:00.622Z,49.85
2022-11-30T05:49:47.292Z,50.59
2022-11-30T05:50:33.837Z,50.11
2022-11-30T05:51:21.503Z,49.58
2022-11-30T05:52:08.003Z,47.18
2022-11-30T05:53:00.715Z,48.03
2022-11-30T05:53:48.046Z,50.87
2022-11-30T05:54:34.911Z,50.11
2022-11-30T05:55:27.119Z,48.22
2022-11-30T05:56:17.030Z,51.75
2022-11-30T05:57:05.360Z,51.54
2022-11-30T05:57:52.781Z,49.99
2022-11-30T05:58:39.861Z,49.11
2022-11-30T05:59:26.396Z,46.87
2022-11-30T06:00:15.745Z,46.10
2022-11-30T06:01:02.888Z,46.08
2022-11-30T06:01:52.040Z,42.53
2022-11-30T06:02:38.841Z,43.21
2022-11-30T06:03:28.270Z,47.12
2022-11-30T06:04:14.973Z,50.95
2022-11-30T06:05:04.403Z,49.47
2022-11-30T06:05:54.839Z,47.66
2022-11-30T06:06:41.547Z,48.18
2022-11-30T06:07:28.077Z,49.57
2022-11-30T06:08:14.622Z,47.91
2022-11-30T06:09:01.527Z,46.26
2022-11-30T06:09:48.211Z,48.23
2022-11-30T06:10:35.513Z,47.74
2022-11-30T06:11:22.259Z,47.07
2022-11-30T06:12:09.006Z,47.54
2022-11-30T06:12:55.517Z,51.92
2022-11-30T06:13:42.816Z,50.00
2022-11-30T06:14:29.377Z,46.39
2022-11-30T06:15:16.036Z,46.36
2022-11-30T06:16:04.949Z,47.30
2022-11-30T06:16:52.030Z,46.27
2022-11-30T06:17:38.747Z,44.53
2022-11-30T06:18:25.396Z,43.25
2022-11-30T06:19:12.053Z,42.15
2022-11-30T06:19:58.723Z,39.84
2022-11-30T06:20:45.355Z,43.18
2022-11-30T06:21:32.173Z,42.76
2022-11-30T06:22:18.654Z,44.64
2022-11-30T06:23:05.616Z,43.08
2022-11-30T06:23:52.985Z,41.05
2022-11-30T06:24:42.003Z,42.56
2022-11-30T06:25:29.018Z,41.62
2022-11-30T06:26:15.491Z,38.52
2022-11-30T06:27:01.999Z,39.93
2022-11-30T06:27:48.680Z,38.39
2022-11-30T06:28:35.628Z,40.08
2022-11-30T06:29:22.381Z,38.59
2022-11-30T06:30:10.224Z,35.57
2022-11-30T06:31:05.628Z,34.59
2022-11-30T06:31:53.323Z,37.28
2022-11-30T06:32:39.914Z,37.72
2022-11-30T06:33:27.347Z,37.32
2022-11-30T06:34:13.963Z,36.69
2022-11-30T06:35:00.602Z,34.94
2022-11-30T06:35:47.454Z,35.06
2022-11-30T06:36:36.316Z,34.22
2022-11-30T06:37:23.275Z,35.00
2022-11-30T06:38:09.778Z,35.38
2022-11-30T06:38:56.339Z,34.92
2022-11-30T06:40:05.236Z,34.70
2022-11-30T06:40:50.137Z,32.27
2022-11-30T06:41:36.827Z,35.58
2022-11-30T06:42:23.487Z,35.96
2022-11-30T06:43:10.274Z,36.48
2022-11-30T06:43:57.281Z,33.66
2022-11-30T06:44:44.067Z,32.88
2022-11-30T06:45:31.680Z,32.74
2022-11-30T06:46:18.373Z,32.20
2022-11-30T06:47:05.113Z,31.95
2022-11-30T06:47:55.748Z,33.42
2022-11-30T06:48:42.491Z,34.52
2022-11-30T06:49:29.156Z,34.04
2022-11-30T06:50:15.851Z,32.86
2022-11-30T06:51:05.621Z,32.62
2022-11-30T06:51:52.308Z,33.66
2022-11-30T06:52:39.060Z,34.07
2022-11-30T06:53:26.002Z,33.13
2022-11-30T06:54:12.566Z,31.56
2022-11-30T06:54:59.507Z,29.50
2022-11-30T06:55:46.207Z,29.45
2022-11-30T06:56:32.745Z,29.91
2022-11-30T06:57:19.256Z,30.12
2022-11-30T06:58:10.369Z,30.78
2022-11-30T06:58:57.470Z,32.91
2022-11-30T06:59:44.289Z,31.95
2022-11-30T07:00:30.954Z,31.93
2022-11-30T07:01:17.590Z,30.72
2022-11-30T07:02:08.863Z,30.28
2022-11-30T07:02:57.571Z,30.28
2022-11-30T07:03:44.185Z,30.54
2022-11-30T07:04:30.679Z,32.05
2022-11-30T07:05:17.146Z,30.42
2022-11-30T07:06:12.682Z,31.54
2022-11-30T07:06:59.398Z,32.42
2022-11-30T07:07:45.905Z,30.23
2022-11-30T07:08:32.398Z,29.43
2022-11-30T07:09:18.844Z,28.79
2022-11-30T07:10:05.783Z,29.17
2022-11-30T07:10:52.990Z,29.60
2022-11-30T07:11:39.749Z,28.00
2022-11-30T07:12:26.810Z,28.40
2022-11-30T07:13:17.105Z,28.56
2022-11-30T07:14:03.750Z,28.32
2022-11-30T07:14:55.440Z,28.70
2022-11-30T07:15:43.297Z,29.01
2022-11-30T07:16:30.078Z,28.27
2022-11-30T07:17:16.661Z,28.11
2022-11-30T07:18:03.128Z,27.63
2022-11-30T07:18:49.758Z,27.45
2022-11-30T07:19:36.175Z,26.55
2022-11-30T07:20:22.804Z,27.64
2022-11-30T07:21:10.574Z,27.79
2022-11-30T07:21:57.351Z,27.57
2022-11-30T07:22:43.948Z,27.51
2022-11-30T07:23:54.284Z,27.85
2022-11-30T07:25:01.148Z,27.26
2022-11-30T07:26:07.585Z,28.00
2022-11-30T07:26:54.356Z,26.42
2022-11-30T07:27:40.771Z,26.73
2022-11-30T07:28:27.181Z,26.36
2022-11-30T07:29:13.698Z,26.05
2022-11-30T07:30:00.428Z,25.82
2022-11-30T07:30:46.979Z,26.87
2022-11-30T07:31:34.886Z,28.44
2022-11-30T07:32:24.468Z,27.30
2022-11-30T07:33:11.247Z,26.94
2022-11-30T07:34:02.879Z,26.20
2022-11-30T07:34:49.876Z,27.11
2022-11-30T07:35:39.269Z,27.10
2022-11-30T07:36:27.636Z,28.53
2022-11-30T07:37:14.322Z,27.93
2022-11-30T07:38:05.374Z,29.54
2022-11-30T07:38:54.838Z,26.53
2022-11-30T07:39:43.927Z,26.04
2022-11-30T07:40:31.286Z,27.47
2022-11-30T07:41:18.039Z,27.61
2022-11-30T07:42:05.274Z,25.58
2022-11-30T07:42:58.740Z,27.44
2022-11-30T07:43:45.303Z,28.22
2022-11-30T07:44:32.845Z,27.58
2022-11-30T07:45:19.359Z,28.81
2022-11-30T07:46:14.050Z,29.55
2022-11-30T07:47:01.118Z,28.75
2022-11-30T07:47:48.009Z,27.71
2022-11-30T07:48:35.322Z,27.91
2022-11-30T07:49:22.083Z,28.85
2022-11-30T07:50:09.299Z,27.58
2022-11-30T07:51:05.687Z,25.98
2022-11-30T07:51:52.377Z,27.94
2022-11-30T07:52:39.372Z,27.78
2022-11-30T07:53:25.973Z,27.31
2022-11-30T07:54:13.766Z,26.51
2022-11-30T07:55:00.286Z,26.97
2022-11-30T07:55:46.812Z,28.63
2022-11-30T07:56:33.393Z,28.57
2022-11-30T07:57:20.143Z,29.63
2022-11-30T07:58:14.208Z,31.22
2022-11-30T07:59:03.737Z,28.54
2022-11-30T07:59:50.468Z,27.75
2022-11-30T08:00:37.964Z,28.66
2022-11-30T08:01:30.129Z,30.42
2022-11-30T08:02:16.966Z,28.64
2022-11-30T08:03:04.299Z,29.07
2022-11-30T08:03:52.352Z,30.97
2022-11-30T08:04:39.178Z,30.09
2022-11-30T08:05:28.245Z,29.02
2022-11-30T08:06:19.784Z,28.40
2022-11-30T08:07:06.458Z,29.78
2022-11-30T08:07:56.898Z,30.54
2022-11-30T08:08:45.408Z,28.91
2022-11-30T08:09:31.983Z,29.72
2022-11-30T08:10:21.040Z,28.90
2022-11-30T08:11:10.799Z,27.94
2022-11-30T08:11:57.459Z,29.66
2022-11-30T08:12:44.165Z,28.44
2022-11-30T08:13:31.410Z,29.17
2022-11-30T08:14:18.267Z,29.60
2022-11-30T08:15:21.770Z,30.33
2022-11-30T08:16:13.789Z,30.87
2022-11-30T08:17:00.692Z,29.97
2022-11-30T08:17:50.297Z,29.15
2022-11-30T08:18:37.413Z,28.93
2022-11-30T08:19:24.267Z,28.47
2022-11-30T08:20:11.876Z,27.84
2022-11-30T08:21:01.608Z,28.20
2022-11-30T08:21:48.178Z,28.73
2022-11-30T08:22:37.033Z,27.54
2022-11-30T08:23:23.709Z,28.03
2022-11-30T08:24:13.577Z,28.07
2022-11-30T08:25:03.410Z,28.57
2022-11-30T08:25:53.092Z,30.72
2022-11-30T08:26:39.922Z,29.87
2022-11-30T08:27:26.866Z,27.82
2022-11-30T08:28:13.386Z,27.50
2022-11-30T08:29:01.505Z,27.85
2022-11-30T08:29:48.037Z,27.62
2022-11-30T08:30:36.999Z,29.46
2022-11-30T08:31:32.395Z,29.10
2022-11-30T08:32:19.088Z,28.78
2022-11-30T08:33:05.576Z,28.54
2022-11-30T08:34:04.198Z,26.16
2022-11-30T08:34:51.089Z,28.67
2022-11-30T08:35:37.803Z,27.37
2022-11-30T08:36:29.394Z,27.43
2022-11-30T08:37:22.412Z,27.93
2022-11-30T08:38:13.011Z,26.65
2022-11-30T08:39:02.562Z,26.78
2022-11-30T08:39:49.465Z,27.46
2022-11-30T08:40:36.357Z,27.71
2022-11-30T08:41:23.865Z,27.42
2022-11-30T08:42:13.248Z,28.05
2022-11-30T08:43:01.041Z,28.84
2022-11-30T08:43:49.607Z,27.99
2022-11-30T08:44:36.362Z,27.57
2022-11-30T08:45:23.247Z,26.46
2022-11-30T08:46:42.561Z,26.42
2022-11-30T08:47:20.002Z,27.74
2022-11-30T08:48:07.208Z,28.89
2022-11-30T08:49:12.557Z,27.05
2022-11-30T08:50:03.910Z,27.82
2022-11-30T08:50:51.076Z,28.20
2022-11-30T08:52:00.851Z,28.98
2022-11-30T08:52:44.443Z,28.96
2022-11-30T08:53:32.365Z,27.97
2022-11-30T08:54:18.978Z,28.34
2022-11-30T08:55:06.362Z,28.75
2022-11-30T08:56:01.360Z,29.82
2022-11-30T08:56:48.052Z,28.82
2022-11-30T08:57:37.770Z,28.92
2022-11-30T08:58:27.544Z,29.72
2022-11-30T08:59:14.268Z,27.62
2022-11-30T09:00:01.051Z,28.60
2022-11-30T09:00:47.566Z,28.61
2022-11-30T09:01:34.060Z,28.37
2022-11-30T09:02:20.641Z,27.30
2022-11-30T09:03:07.184Z,29.07
2022-11-30T09:03:55.775Z,30.84
2022-11-30T09:04:42.413Z,29.12
2022-11-30T09:05:29.055Z,27.45
2022-11-30T09:06:18.689Z,29.96
2022-11-30T09:07:05.526Z,31.00
2022-11-30T09:07:52.361Z,30.78
2022-11-30T09:08:43.624Z,27.90
2022-11-30T09:09:33.294Z,28.80
2022-11-30T09:10:20.038Z,28.87
2022-11-30T09:11:15.973Z,30.69
2022-11-30T09:12:02.774Z,30.87
2022-11-30T09:12:49.554Z,29.75
2022-11-30T09:13:40.261Z,29.35
2022-11-30T09:14:27.038Z,29.11
2022-11-30T09:15:13.726Z,29.42
2022-11-30T09:16:00.294Z,30.11
2022-11-30T09:16:47.118Z,32.33
2022-11-30T09:17:33.755Z,32.31
2022-11-30T09:18:23.003Z,30.84
2022-11-30T09:19:10.422Z,29.70
2022-11-30T09:19:57.111Z,30.56
2022-11-30T09:20:43.681Z,31.69
2022-11-30T09:21:30.410Z,29.78
2022-11-30T09:22:18.199Z,38.67
2022-11-30T09:23:04.845Z,48.23
2022-11-30T09:23:53.233Z,41.94
2022-11-30T09:24:40.219Z,32.60
2022-11-30T09:25:30.120Z,33.26
2022-11-30T09:26:19.807Z,32.99
2022-11-30T09:27:06.397Z,31.35
2022-11-30T09:27:53.089Z,28.76
2022-11-30T09:28:40.071Z,30.07
2022-11-30T09:29:26.734Z,31.23
2022-11-30T09:30:14.023Z,30.50
2022-11-30T09:31:21.797Z,29.41
2022-11-30T09:32:08.615Z,29.57
2022-11-30T09:32:55.170Z,28.98
2022-11-30T09:33:42.392Z,28.13
2022-11-30T09:34:29.168Z,28.90
2022-11-30T09:35:15.764Z,28.19
2022-11-30T09:36:05.829Z,29.60
2022-11-30T09:36:52.672Z,29.90
2022-11-30T09:37:40.257Z,29.33
2022-11-30T09:38:28.472Z,29.33
2022-11-30T09:39:15.150Z,28.48
2022-11-30T09:40:01.843Z,29.39
2022-11-30T09:40:55.771Z,29.56
2022-11-30T09:41:54.055Z,30.58
2022-11-30T09:43:02.539Z,30.87
2022-11-30T09:44:10.587Z,30.11
2022-11-30T09:45:08.120Z,28.54
2022-11-30T09:46:03.505Z,26.75
2022-11-30T09:47:13.296Z,29.58
2022-11-30T09:48:09.008Z,29.77
2022-11-30T09:49:04.306Z,28.41
2022-11-30T09:49:51.318Z,29.63
2022-11-30T09:50:44.146Z,30.78
2022-11-30T09:51:47.839Z,29.78
2022-11-30T09:52:43.809Z,31.33
2022-11-30T09:53:54.948Z,33.40
2022-11-30T09:54:45.538Z,30.96
2022-11-30T09:55:44.445Z,31.72
2022-11-30T09:56:37.712Z,31.71
2022-11-30T09:57:29.040Z,32.13
2022-11-30T09:59:05.040Z,32.33
2022-11-30T09:59:59.328Z,28.64
2022-11-30T10:00:46.020Z,31.75
2022-11-30T10:01:37.698Z,31.51
2022-11-30T10:02:30.472Z,31.87
2022-11-30T10:03:21.950Z,32.19
2022-11-30T10:04:25.951Z,31.94
2022-11-30T10:05:41.071Z,29.90
2022-11-30T10:06:50.627Z,30.85
2022-11-30T10:07:59.106Z,31.10
2022-11-30T10:09:04.104Z,31.46
2022-11-30T10:11:37.668Z,29.78
2022-11-30T10:12:51.553Z,31.73
2022-11-30T10:14:05.139Z,30.28
2022-11-30T10:15:15.146Z,32.12
2022-11-30T10:16:24.263Z,32.00
2022-11-30T10:17:26.009Z,31.73
2022-11-30T10:18:26.251Z,29.91
2022-11-30T10:19:54.911Z,32.04
2022-11-30T10:21:02.796Z,32.38
2022-11-30T10:22:21.728Z,33.10
2022-11-30T10:23:15.058Z,33.86
2022-11-30T10:24:26.775Z,34.20
2022-11-30T10:25:25.415Z,32.54
2022-11-30T10:26:21.553Z,31.36
2022-11-30T10:27:18.344Z,31.40
2022-11-30T10:28:44.976Z,32.20
2022-11-30T10:29:35.709Z,33.87
2022-11-30T10:30:26.148Z,33.78
2022-11-30T10:31:18.181Z,35.37
2022-11-30T10:32:20.626Z,34.11
2022-11-30T10:33:19.369Z,34.95
2022-11-30T10:34:21.806Z,36.39
2022-11-30T10:35:28.684Z,34.94
2022-11-30T10:36:42.139Z,35.04
2022-11-30T10:37:36.830Z,34.35
2022-11-30T10:38:46.949Z,34.96
2022-11-30T10:39:58.417Z,36.34
2022-11-30T10:41:03.880Z,36.07
2022-11-30T10:42:12.614Z,40.41
2022-11-30T10:43:09.938Z,41.82